Trammo Cornell — 9V5446 — position and weather

sailwx.info

Track history (hours):
 
Tides and Currents Weather Stations Pressure Air Temp Water Temp Dewpoint Dewpoint Depression Visibility Wind Speed Wind Dir Waves Ship Positions

Trammo Cornell

Last reported at 2017-Nov-20 00:30 UTC. Time now 2017-Nov-21 08:23 UTC.
Position S 29°46' E 031°13'.

Length 172 m; draft 8.1 m.

Type: Tanker. MMSI: 563026400.

Date/timePositionNaut miles runAvg speedWind from/ knotsBaromVisibWave heightAir tempDewpointWater temp
2017-Nov-20 00:30S 29°46' E 031°13'0 0.0
2017-Nov-20 00:00S 29°46' E 031°13'0 0.0
2017-Nov-19 23:30S 29°46' E 031°13'0 0.0
2017-Nov-19 23:00S 29°46' E 031°13'0 0.0
2017-Nov-19 22:30S 29°45' E 031°13'0 0.0
2017-Nov-19 22:00S 29°46' E 031°13'0 0.0
2017-Nov-19 21:30S 29°46' E 031°13'0 0.0
2017-Nov-19 21:00S 29°45' E 031°13'0 0.0
2017-Nov-19 20:30S 29°46' E 031°13'0 0.0
2017-Nov-19 20:00S 29°46' E 031°13'0 0.0
2017-Nov-19 19:30S 29°46' E 031°13'0 0.0
2017-Nov-19 19:00S 29°46' E 031°13'0 0.0
2017-Nov-19 18:30S 29°46' E 031°13'0 0.0
2017-Nov-19 17:51S 29°46' E 031°13'0 0.0
2017-Nov-19 17:30S 29°46' E 031°13'0 0.0
2017-Nov-19 17:00S 29°46' E 031°13'0 0.0
2017-Nov-19 16:30S 29°46' E 031°13'0 0.0
2017-Nov-19 16:00S 29°46' E 031°13'0 0.0
2017-Nov-19 15:30S 29°46' E 031°13'0 0.1
2017-Nov-19 14:58S 29°46' E 031°14'0 0.9
2017-Nov-19 14:30S 29°46' E 031°13'2 3.1
2017-Nov-19 14:01S 29°47' E 031°14'4 8.5
2017-Nov-19 13:30S 29°46' E 031°19'713.8
2017-Nov-19 13:00S 29°44' E 031°27'714.9
2017-Nov-19 12:31S 29°41' E 031°35'714.9
2017-Nov-19 12:00S 29°38' E 031°42'815.7
2017-Nov-19 11:30S 29°33' E 031°49'917.1
2017-Nov-19 11:01S 29°27' E 031°57'816.7
2017-Nov-19 10:31S 29°21' E 032°04'816.3
2017-Nov-19 10:00S 29°15' E 032°09'816.2
2017-Nov-19 09:31S 29°07' E 032°11'816.0
2017-Nov-19 09:00S 28°59' E 032°13'813.5
2017-Nov-19 08:23S 28°51' E 032°10'610.6
2017-Nov-19 07:47S 28°48' E 032°03'0 0.1
2017-Nov-19 02:58S 28°48' E 032°03'0 0.0
2017-Nov-19 01:58S 28°48' E 032°03'0 0.0
2017-Nov-19 01:10S 28°48' E 032°03'0 0.0
2017-Nov-19 00:58S 28°48' E 032°03'0 0.0
2017-Nov-19 00:28S 28°48' E 032°03'0 0.0
2017-Nov-18 22:52S 28°48' E 032°03'0 0.0
2017-Nov-18 22:28S 28°48' E 032°03'0 0.0
2017-Nov-18 21:58S 28°48' E 032°03'0 0.0
2017-Nov-18 21:16S 28°48' E 032°03'0 0.0
2017-Nov-18 20:58S 28°48' E 032°03'0 0.0
2017-Nov-18 20:28S 28°48' E 032°03'0 0.0
2017-Nov-18 19:58S 28°48' E 032°03'  
2017-Nov-14 06:58S 28°48' E 032°04'4 8.4
2017-Nov-14 06:26S 28°50' E 032°08'4 8.3
2017-Nov-14 06:00S 28°54' E 032°09'4 7.9
2017-Nov-14 05:28S 28°57' E 032°12'4 9.1
2017-Nov-14 05:00S 29°00' E 032°15'4 8.6
2017-Nov-14 04:30S 29°04' E 032°17'  
Track history (hours):
 
Tides and Currents Weather Stations Pressure Air Temp Water Temp Dewpoint Dewpoint Depression Visibility Wind Speed Wind Dir Waves Ship Positions

Trammo Cornell

Last reported at 2017-Nov-20 00:30 UTC. Time now 2017-Nov-21 08:23 UTC.
Position S 29°46' E 031°13'.

Length 172 m; draft 8.1 m.

Type: Tanker. MMSI: 563026400.

Date/timePositionNaut miles runAvg speedWind from/ knotsBaromVisibWave heightAir tempDewpointWater temp
2017-Nov-20 00:30S 29°46' E 031°13'0 0.0
2017-Nov-20 00:00S 29°46' E 031°13'0 0.0
2017-Nov-19 23:30S 29°46' E 031°13'0 0.0
2017-Nov-19 23:00S 29°46' E 031°13'0 0.0
2017-Nov-19 22:30S 29°45' E 031°13'0 0.0
2017-Nov-19 22:00S 29°46' E 031°13'0 0.0
2017-Nov-19 21:30S 29°46' E 031°13'0 0.0
2017-Nov-19 21:00S 29°45' E 031°13'0 0.0
2017-Nov-19 20:30S 29°46' E 031°13'0 0.0
2017-Nov-19 20:00S 29°46' E 031°13'0 0.0
2017-Nov-19 19:30S 29°46' E 031°13'0 0.0
2017-Nov-19 19:00S 29°46' E 031°13'0 0.0
2017-Nov-19 18:30S 29°46' E 031°13'0 0.0
2017-Nov-19 17:51S 29°46' E 031°13'0 0.0
2017-Nov-19 17:30S 29°46' E 031°13'0 0.0
2017-Nov-19 17:00S 29°46' E 031°13'0 0.0
2017-Nov-19 16:30S 29°46' E 031°13'0 0.0
2017-Nov-19 16:00S 29°46' E 031°13'0 0.0
2017-Nov-19 15:30S 29°46' E 031°13'0 0.1
2017-Nov-19 14:58S 29°46' E 031°14'0 0.9
2017-Nov-19 14:30S 29°46' E 031°13'2 3.1
2017-Nov-19 14:01S 29°47' E 031°14'4 8.5
2017-Nov-19 13:30S 29°46' E 031°19'713.8
2017-Nov-19 13:00S 29°44' E 031°27'714.9
2017-Nov-19 12:31S 29°41' E 031°35'714.9
2017-Nov-19 12:00S 29°38' E 031°42'815.7
2017-Nov-19 11:30S 29°33' E 031°49'917.1
2017-Nov-19 11:01S 29°27' E 031°57'816.7
2017-Nov-19 10:31S 29°21' E 032°04'816.3
2017-Nov-19 10:00S 29°15' E 032°09'816.2
2017-Nov-19 09:31S 29°07' E 032°11'816.0
2017-Nov-19 09:00S 28°59' E 032°13'813.5
2017-Nov-19 08:23S 28°51' E 032°10'610.6
2017-Nov-19 07:47S 28°48' E 032°03'0 0.1
2017-Nov-19 02:58S 28°48' E 032°03'0 0.0
2017-Nov-19 01:58S 28°48' E 032°03'0 0.0
2017-Nov-19 01:10S 28°48' E 032°03'0 0.0
2017-Nov-19 00:58S 28°48' E 032°03'0 0.0
2017-Nov-19 00:28S 28°48' E 032°03'0 0.0
2017-Nov-18 22:52S 28°48' E 032°03'0 0.0
2017-Nov-18 22:28S 28°48' E 032°03'0 0.0
2017-Nov-18 21:58S 28°48' E 032°03'0 0.0
2017-Nov-18 21:16S 28°48' E 032°03'0 0.0
2017-Nov-18 20:58S 28°48' E 032°03'0 0.0
2017-Nov-18 20:28S 28°48' E 032°03'0 0.0
2017-Nov-18 19:58S 28°48' E 032°03'  
2017-Nov-14 06:58S 28°48' E 032°04'4 8.4
2017-Nov-14 06:26S 28°50' E 032°08'4 8.3
2017-Nov-14 06:00S 28°54' E 032°09'4 7.9
2017-Nov-14 05:28S 28°57' E 032°12'4 9.1
2017-Nov-14 05:00S 29°00' E 032°15'4 8.6
2017-Nov-14 04:30S 29°04' E 032°17'  

Dump ship's entire track history